createdAt,value
2023-03-22T00:03:37.405Z,24.70
2023-03-22T00:08:43.290Z,24.70
2023-03-22T00:13:49.704Z,24.70
2023-03-22T00:19:01.713Z,24.70
2023-03-22T00:24:07.091Z,24.90
2023-03-22T00:29:12.138Z,25.10
2023-03-22T00:34:20.233Z,25.50
2023-03-22T00:39:26.378Z,25.80
2023-03-22T00:44:32.121Z,26.10
2023-03-22T00:49:39.063Z,26.10
2023-03-22T00:54:46.003Z,26.10
2023-03-22T00:59:56.042Z,26.10
2023-03-22T01:05:02.094Z,26.10
2023-03-22T01:10:09.628Z,26.20
2023-03-22T01:15:17.903Z,26.70
2023-03-22T01:20:24.163Z,27.00
2023-03-22T01:25:30.532Z,27.30
2023-03-22T01:30:36.768Z,27.30
2023-03-22T01:35:46.675Z,27.40
2023-03-22T01:40:53.571Z,27.40
2023-03-22T01:46:05.203Z,27.80
2023-03-22T01:51:13.700Z,28.90
2023-03-22T01:56:43.206Z,29.20
2023-03-22T02:01:58.626Z,29.60
2023-03-22T02:07:11.557Z,29.60
2023-03-22T02:44:42.688Z,31.10
2023-03-22T02:50:03.057Z,31.30
2023-03-22T02:55:26.888Z,31.20
2023-03-22T03:00:41.187Z,31.40
2023-03-22T03:05:58.963Z,31.80
2023-03-22T03:11:05.659Z,31.80
2023-03-22T03:16:18.641Z,31.80
2023-03-22T03:21:31.605Z,32.00
2023-03-22T03:27:06.348Z,32.30
2023-03-22T03:32:43.347Z,32.50
2023-03-22T03:37:54.110Z,32.60
2023-03-22T03:43:02.777Z,32.80
2023-03-22T03:48:21.089Z,32.80
2023-03-22T03:53:37.082Z,32.70
2023-03-22T03:58:45.394Z,32.90
2023-03-22T04:03:56.818Z,33.10
2023-03-22T04:09:21.189Z,32.90
2023-03-22T04:14:32.569Z,33.00
2023-03-22T04:19:47.082Z,33.30
2023-03-22T04:24:53.741Z,33.40
2023-03-22T04:30:02.371Z,33.50
2023-03-22T04:35:32.011Z,33.30
2023-03-22T04:40:41.206Z,33.50
2023-03-22T04:46:04.498Z,34.30
2023-03-22T04:52:37.718Z,36.00
2023-03-22T04:57:46.284Z,37.60
2023-03-22T05:03:00.050Z,38.00
2023-03-22T05:08:18.315Z,38.20
2023-03-22T05:14:16.340Z,38.90
2023-03-22T05:24:36.641Z,39.80
2023-03-22T05:29:46.475Z,40.70
2023-03-22T05:35:06.144Z,40.80
2023-03-22T05:40:18.266Z,41.90
2023-03-22T05:45:29.051Z,41.60
2023-03-22T05:51:01.682Z,41.10
2023-03-22T05:56:12.672Z,40.80
2023-03-22T06:01:59.597Z,42.10
2023-03-22T06:07:18.053Z,42.60
2023-03-22T06:12:34.899Z,42.60
2023-03-22T06:17:48.282Z,42.60
2023-03-22T06:23:02.390Z,42.70
2023-03-22T06:28:09.339Z,43.90
2023-03-22T06:33:43.059Z,43.60
2023-03-22T06:39:04.092Z,43.60
2023-03-22T06:44:10.239Z,42.60
2023-03-22T06:49:49.249Z,41.80
2023-03-22T06:55:13.770Z,42.00
2023-03-22T07:00:21.480Z,43.00
2023-03-22T07:05:33.708Z,42.40
2023-03-22T07:10:40.796Z,42.40
2023-03-22T07:15:47.338Z,43.10
2023-03-22T07:21:17.230Z,44.00
2023-03-22T07:26:33.012Z,44.30
2023-03-22T07:31:41.478Z,44.40
2023-03-22T07:36:59.885Z,42.60
2023-03-22T07:42:06.883Z,41.50
2023-03-22T07:47:40.793Z,41.70
2023-03-22T07:53:13.087Z,41.60
2023-03-22T07:58:19.535Z,40.80
2023-03-22T08:03:29.768Z,39.80
2023-03-22T08:08:43.646Z,39.70
2023-03-22T08:14:27.497Z,38.20
2023-03-22T08:19:49.544Z,37.10
2023-03-22T08:25:02.894Z,36.20
2023-03-22T08:30:13.691Z,35.90
2023-03-22T08:35:22.055Z,35.70
2023-03-22T08:40:29.863Z,35.10
2023-03-22T08:45:47.047Z,34.70
2023-03-22T08:50:55.364Z,34.60
2023-03-22T08:56:25.641Z,34.00
2023-03-22T09:01:46.046Z,33.70
2023-03-22T09:06:55.382Z,33.50
2023-03-22T09:12:10.016Z,33.50
2023-03-22T09:17:21.349Z,33.20
2023-03-22T09:22:29.178Z,32.70
2023-03-22T09:27:35.781Z,32.30
2023-03-22T09:32:42.143Z,32.20
2023-03-22T09:37:54.468Z,32.00
2023-03-22T09:43:04.988Z,31.80
2023-03-22T09:48:25.489Z,31.50
2023-03-22T09:53:36.739Z,31.30
2023-03-22T09:59:16.115Z,31.20
2023-03-22T10:04:54.233Z,30.70
2023-03-22T10:10:21.413Z,30.50
2023-03-22T10:15:33.157Z,30.20
2023-03-22T10:21:08.030Z,30.00
2023-03-22T10:26:30.778Z,29.90
2023-03-22T10:31:37.139Z,29.60
2023-03-22T10:36:44.358Z,29.40
2023-03-22T10:41:51.310Z,29.10
2023-03-22T10:47:01.546Z,28.90
2023-03-22T10:52:31.943Z,28.60
2023-03-22T10:57:41.812Z,28.30
2023-03-22T11:03:03.306Z,28.20
2023-03-22T11:08:16.340Z,28.10
2023-03-22T11:13:26.233Z,27.90
2023-03-22T11:18:37.354Z,27.80
2023-03-22T11:24:10.396Z,27.60
2023-03-22T11:35:28.397Z,27.40
2023-03-22T11:40:37.737Z,27.20
2023-03-22T11:45:45.839Z,27.10
2023-03-22T11:50:58.966Z,27.00
2023-03-22T11:56:09.009Z,26.90
2023-03-22T12:01:41.640Z,26.80
2023-03-22T12:06:48.376Z,26.80
2023-03-22T12:12:03.891Z,26.80
2023-03-22T12:17:42.607Z,26.70
2023-03-22T12:22:55.831Z,26.70
2023-03-22T12:28:11.332Z,26.60
2023-03-22T12:33:40.287Z,26.50
2023-03-22T12:39:00.563Z,26.40
2023-03-22T12:44:12.927Z,26.30
2023-03-22T12:49:29.532Z,26.20
2023-03-22T12:54:36.564Z,26.10
2023-03-22T12:59:47.842Z,26.10
2023-03-22T13:04:59.821Z,26.20
2023-03-22T13:16:53.499Z,26.00
2023-03-22T13:22:27.791Z,26.00
2023-03-22T13:55:16.326Z,25.90
2023-03-22T14:01:45.845Z,25.90
2023-03-22T14:07:42.126Z,25.80
2023-03-22T14:13:13.398Z,25.80
2023-03-22T14:18:38.479Z,25.70
